CANYN21 KNKX-KNSI
Flight info
| Callsign | CANYN21 |
|---|---|
| Flight time | N/A |
| Altitude | 20000 |
| Route | NUC |
| Aircraft | F18S/L-VD/C |
Departure
| Time | 2026-04-25 03:29 |
|---|---|
| Airport | Miramar Marine Corps Air Station - Mitscher Field (KNKX) |
Arrival
| Time | N/A |
|---|---|
| Airport | San Nicolas Island Nolf Airport (KNSI) |
| Time | Latitude | Longitude | Altitude | Speed | Heading |
|---|---|---|---|---|---|
| 2026-04-25 03:16 | 32.87341 | -117.13571 | 465 ft | 0 kts | 166° |
| 2026-04-25 03:24 | 32.87333 | -117.13571 | 465 ft | 5 kts | 186° |
| 2026-04-25 03:25 | 32.87285 | -117.13618 | 464 ft | 13 kts | 180° |
| 2026-04-25 03:25 | 32.87246 | -117.13540 | 463 ft | 13 kts | 74° |
| 2026-04-25 03:25 | 32.87267 | -117.13447 | 463 ft | 11 kts | 75° |
| 2026-04-25 03:25 | 32.87286 | -117.13360 | 463 ft | 13 kts | 75° |
| 2026-04-25 03:26 | 32.87312 | -117.13240 | 463 ft | 18 kts | 75° |
| 2026-04-25 03:26 | 32.87344 | -117.13096 | 463 ft | 17 kts | 76° |
| 2026-04-25 03:26 | 32.87371 | -117.12972 | 463 ft | 14 kts | 75° |
| 2026-04-25 03:26 | 32.87394 | -117.12870 | 464 ft | 12 kts | 75° |
| 2026-04-25 03:27 | 32.87397 | -117.12775 | 464 ft | 11 kts | 109° |
| 2026-04-25 03:27 | 32.87377 | -117.12759 | 463 ft | 0 kts | 170° |
| 2026-04-25 03:28 | 32.87339 | -117.12750 | 462 ft | 11 kts | 167° |
| 2026-04-25 03:28 | 32.87268 | -117.12788 | 461 ft | 15 kts | 256° |
| 2026-04-25 03:28 | 32.87094 | -117.13568 | 570 ft | 170 kts | 253° |
| 2026-04-25 03:29 | 32.86729 | -117.15118 | 1351 ft | 215 kts | 253° |
| 2026-04-25 03:29 | 32.86311 | -117.16937 | 1976 ft | 237 kts | 253° |
| 2026-04-25 03:29 | 32.85874 | -117.18846 | 2674 ft | 237 kts | 255° |
| 2026-04-25 03:29 | 32.85451 | -117.20698 | 3334 ft | 229 kts | 255° |
| 2026-04-25 03:30 | 32.85038 | -117.22514 | 3871 ft | 232 kts | 255° |
| 2026-04-25 03:30 | 32.84585 | -117.24444 | 3979 ft | 251 kts | 255° |
| 2026-04-25 03:30 | 32.84108 | -117.26480 | 4004 ft | 255 kts | 255° |
| 2026-04-25 03:30 | 32.83638 | -117.28490 | 4017 ft | 250 kts | 255° |
| 2026-04-25 03:31 | 32.83167 | -117.30451 | 4096 ft | 240 kts | 255° |
| 2026-04-25 03:31 | 32.82685 | -117.32298 | 4367 ft | 227 kts | 248° |
| 2026-04-25 03:31 | 32.81692 | -117.33763 | 4597 ft | 238 kts | 214° |
| 2026-04-25 03:31 | 32.80071 | -117.34221 | 4865 ft | 254 kts | 176° |
| 2026-04-25 03:32 | 32.78339 | -117.33495 | 5208 ft | 272 kts | 151° |
| 2026-04-25 03:32 | 32.76887 | -117.31995 | 5664 ft | 283 kts | 132° |
| 2026-04-25 03:32 | 32.75854 | -117.29996 | 6027 ft | 288 kts | 114° |
| 2026-04-25 03:32 | 32.75429 | -117.27660 | 6321 ft | 292 kts | 92° |
| 2026-04-25 03:33 | 32.75807 | -117.25315 | 6636 ft | 288 kts | 65° |
| 2026-04-25 03:33 | 32.76911 | -117.23371 | 7014 ft | 281 kts | 44° |
| 2026-04-25 03:33 | 32.78434 | -117.22021 | 7433 ft | 276 kts | 24° |
| 2026-04-25 03:33 | 32.80259 | -117.21379 | 7668 ft | 277 kts | 1° |
| 2026-04-25 03:34 | 32.82173 | -117.21607 | 8009 ft | 273 kts | 340° |
| 2026-04-25 03:34 | 32.83906 | -117.22477 | 8469 ft | 277 kts | 327° |
| 2026-04-25 03:34 | 32.85539 | -117.23718 | 8978 ft | 280 kts | 317° |
| 2026-04-25 03:34 | 32.86900 | -117.25365 | 9468 ft | 280 kts | 307° |
| 2026-04-25 03:35 | 32.88140 | -117.27158 | 9991 ft | 283 kts | 303° |
| 2026-04-25 03:35 | 32.89308 | -117.29067 | 10479 ft | 290 kts | 300° |
| 2026-04-25 03:35 | 32.90348 | -117.31195 | 11046 ft | 305 kts | 296° |
| 2026-04-25 03:35 | 32.91325 | -117.33505 | 11667 ft | 319 kts | 291° |
| 2026-04-25 03:36 | 32.92236 | -117.35970 | 12331 ft | 332 kts | 290° |
| 2026-04-25 03:36 | 32.93174 | -117.38530 | 13040 ft | 343 kts | 290° |
| 2026-04-25 03:36 | 32.94027 | -117.41222 | 13757 ft | 352 kts | 285° |
| 2026-04-25 03:36 | 32.94802 | -117.44018 | 14408 ft | 360 kts | 285° |
| 2026-04-25 03:37 | 32.95463 | -117.46914 | 15062 ft | 366 kts | 279° |
| 2026-04-25 03:37 | 32.95808 | -117.49942 | 15656 ft | 373 kts | 275° |
| 2026-04-25 03:37 | 32.96092 | -117.53035 | 16298 ft | 378 kts | 275° |
| 2026-04-25 03:37 | 32.96380 | -117.56165 | 16961 ft | 383 kts | 275° |
| 2026-04-25 03:38 | 32.96673 | -117.59330 | 17633 ft | 386 kts | 275° |
| 2026-04-25 03:38 | 32.96960 | -117.62516 | 18290 ft | 389 kts | 275° |
| 2026-04-25 03:38 | 32.97244 | -117.65728 | 18855 ft | 391 kts | 274° |
| 2026-04-25 03:38 | 32.97476 | -117.68956 | 19416 ft | 392 kts | 273° |
| 2026-04-25 03:39 | 32.97661 | -117.72185 | 19723 ft | 398 kts | 272° |
| 2026-04-25 03:39 | 32.97836 | -117.75496 | 19984 ft | 403 kts | 272° |
| 2026-04-25 03:39 | 32.98028 | -117.78874 | 20048 ft | 413 kts | 274° |
| 2026-04-25 03:39 | 32.98272 | -117.82339 | 20044 ft | 425 kts | 274° |
| 2026-04-25 03:40 | 32.98514 | -117.85901 | 20061 ft | 436 kts | 272° |
| 2026-04-25 03:40 | 32.98612 | -117.89552 | 20075 ft | 447 kts | 272° |
| 2026-04-25 03:40 | 32.98902 | -117.93285 | 20092 ft | 457 kts | 275° |
| 2026-04-25 03:40 | 32.99119 | -117.97098 | 20092 ft | 467 kts | 272° |
| 2026-04-25 03:41 | 32.99349 | -118.01005 | 20082 ft | 477 kts | 273° |
| 2026-04-25 03:41 | 32.99581 | -118.04981 | 20089 ft | 486 kts | 273° |
| 2026-04-25 03:41 | 32.99817 | -118.08986 | 20071 ft | 494 kts | 273° |
| 2026-04-25 03:41 | 33.00058 | -118.13109 | 20081 ft | 502 kts | 273° |
| 2026-04-25 03:42 | 33.00304 | -118.17293 | 20079 ft | 509 kts | 273° |
| 2026-04-25 03:42 | 33.00553 | -118.21525 | 20084 ft | 516 kts | 273° |
| 2026-04-25 03:42 | 33.00805 | -118.25810 | 20080 ft | 519 kts | 273° |
| 2026-04-25 03:42 | 33.01057 | -118.30106 | 20075 ft | 520 kts | 273° |
| 2026-04-25 03:43 | 33.01310 | -118.34399 | 20084 ft | 520 kts | 273° |
| 2026-04-25 03:43 | 33.01562 | -118.38702 | 20080 ft | 521 kts | 273° |
| 2026-04-25 03:43 | 33.01829 | -118.43006 | 20085 ft | 521 kts | 273° |
| 2026-04-25 03:43 | 33.02061 | -118.47310 | 20081 ft | 521 kts | 272° |
| 2026-04-25 03:44 | 33.02268 | -118.51618 | 20083 ft | 521 kts | 272° |
| 2026-04-25 03:44 | 33.02463 | -118.55907 | 20106 ft | 521 kts | 272° |
| 2026-04-25 03:44 | 33.02813 | -118.60216 | 20067 ft | 523 kts | 277° |
| 2026-04-25 03:44 | 33.03434 | -118.64484 | 20080 ft | 523 kts | 279° |
| 2026-04-25 03:45 | 33.04151 | -118.68733 | 20073 ft | 523 kts | 280° |
| 2026-04-25 03:45 | 33.04914 | -118.72978 | 20085 ft | 524 kts | 281° |
| 2026-04-25 03:45 | 33.05791 | -118.77197 | 20050 ft | 525 kts | 285° |
| 2026-04-25 03:45 | 33.06982 | -118.81305 | 20085 ft | 526 kts | 288° |
| 2026-04-25 03:46 | 33.08052 | -118.85471 | 20075 ft | 524 kts | 283° |
| 2026-04-25 03:46 | 33.09071 | -118.89656 | 20069 ft | 526 kts | 286° |
| 2026-04-25 03:46 | 33.10164 | -118.93813 | 20094 ft | 525 kts | 285° |
| 2026-04-25 03:46 | 33.11231 | -118.97979 | 20082 ft | 526 kts | 285° |
| 2026-04-25 03:47 | 33.12301 | -119.02147 | 20092 ft | 526 kts | 285° |
| 2026-04-25 03:47 | 33.13373 | -119.06320 | 20104 ft | 526 kts | 285° |
| 2026-04-25 03:47 | 33.14445 | -119.10496 | 20094 ft | 526 kts | 285° |
| 2026-04-25 03:47 | 33.15505 | -119.14628 | 20073 ft | 527 kts | 285° |
| 2026-04-25 03:48 | 33.16577 | -119.18805 | 20089 ft | 527 kts | 285° |
| 2026-04-25 03:48 | 33.17629 | -119.22947 | 20037 ft | 502 kts | 284° |
| 2026-04-25 03:48 | 33.18729 | -119.26672 | 19649 ft | 450 kts | 289° |
| 2026-04-25 03:48 | 33.19826 | -119.29991 | 18971 ft | 411 kts | 289° |
| 2026-04-25 03:49 | 33.21070 | -119.32906 | 18181 ft | 385 kts | 304° |
| 2026-04-25 03:49 | 33.23118 | -119.34922 | 16541 ft | 386 kts | 328° |
| 2026-04-25 03:49 | 33.24807 | -119.35592 | 15736 ft | 384 kts | 345° |
| 2026-04-25 03:49 | 33.27312 | -119.35066 | 15087 ft | 364 kts | 28° |
| 2026-04-25 03:50 | 33.28938 | -119.32841 | 13863 ft | 359 kts | 68° |
| 2026-04-25 03:50 | 33.29694 | -119.29980 | 12398 ft | 363 kts | 73° |
| 2026-04-25 03:50 | 33.30367 | -119.27085 | 11143 ft | 359 kts | 79° |
| 2026-04-25 03:50 | 33.30082 | -119.23383 | 9414 ft | 297 kts | 114° |
| 2026-04-25 03:51 | 33.29478 | -119.22014 | 8450 ft | 265 kts | 128° |
| 2026-04-25 03:51 | 33.28192 | -119.20620 | 7629 ft | 238 kts | 159° |
| 2026-04-25 03:51 | 33.26659 | -119.20177 | 6862 ft | 220 kts | 180° |
| 2026-04-25 03:51 | 33.25148 | -119.20330 | 6101 ft | 219 kts | 198° |
| 2026-04-25 03:52 | 33.23786 | -119.21058 | 5439 ft | 213 kts | 215° |
| 2026-04-25 03:52 | 33.22497 | -119.22003 | 4809 ft | 223 kts | 213° |
| 2026-04-25 03:52 | 33.21084 | -119.22843 | 4289 ft | 227 kts | 206° |
| 2026-04-25 03:52 | 33.19576 | -119.23489 | 3965 ft | 237 kts | 202° |
| 2026-04-25 03:53 | 33.17943 | -119.24047 | 3667 ft | 256 kts | 199° |
| 2026-04-25 03:53 | 33.16166 | -119.24568 | 3439 ft | 269 kts | 196° |
| 2026-04-25 03:53 | 33.14366 | -119.25134 | 3204 ft | 260 kts | 207° |
| 2026-04-25 03:53 | 33.13227 | -119.26509 | 2932 ft | 220 kts | 259° |
| 2026-04-25 03:54 | 33.13510 | -119.28179 | 2690 ft | 208 kts | 293° |
| 2026-04-25 03:54 | 33.14098 | -119.29822 | 2659 ft | 230 kts | 293° |
| 2026-04-25 03:54 | 33.14759 | -119.31684 | 2629 ft | 253 kts | 292° |
| 2026-04-25 03:54 | 33.15496 | -119.33590 | 2545 ft | 255 kts | 298° |
| 2026-04-25 03:55 | 33.16491 | -119.35496 | 2465 ft | 288 kts | 305° |
| 2026-04-25 03:55 | 33.17798 | -119.37440 | 2292 ft | 306 kts | 309° |
| 2026-04-25 03:55 | 33.19176 | -119.39376 | 2156 ft | 305 kts | 307° |
| 2026-04-25 03:55 | 33.20476 | -119.41365 | 2060 ft | 303 kts | 310° |
| 2026-04-25 03:56 | 33.21860 | -119.43222 | 2106 ft | 296 kts | 310° |
| 2026-04-25 03:56 | 33.23197 | -119.45041 | 2076 ft | 278 kts | 298° |
| 2026-04-25 03:56 | 33.22547 | -119.46354 | 1559 ft | 188 kts | 169° |
| 2026-04-25 03:56 | 33.21731 | -119.46058 | 420 ft | 75 kts | 262° |